createdAt,value
2023-01-19T00:03:45.950Z,100044.34
2023-01-19T00:08:51.214Z,100054.41
2023-01-19T00:13:54.972Z,100057.50
2023-01-19T00:19:00.109Z,100063.03
2023-01-19T00:24:03.933Z,100044.47
2023-01-19T00:29:07.869Z,100042.59
2023-01-19T00:34:12.934Z,100047.19
2023-01-19T00:39:16.714Z,100037.31
2023-01-19T00:44:20.451Z,100025.94
2023-01-19T00:49:25.486Z,100031.72
2023-01-19T00:54:29.243Z,100029.72
2023-01-19T00:59:32.966Z,100040.25
2023-01-19T01:04:38.274Z,100034.78
2023-01-19T01:09:42.046Z,100042.22
2023-01-19T01:14:45.808Z,100034.94
2023-01-19T01:19:50.943Z,100036.53
2023-01-19T01:24:54.678Z,100046.81
2023-01-19T01:29:58.405Z,100060.56
2023-01-19T01:35:03.800Z,100062.62
2023-01-19T01:40:09.071Z,100067.22
2023-01-19T01:45:32.274Z,100074.34
2023-01-19T01:51:01.036Z,100091.44
2023-01-19T01:56:09.619Z,100097.87
2023-01-19T02:01:31.147Z,100100.56
2023-01-19T02:06:54.462Z,100103.78
2023-01-19T02:12:15.876Z,100105.44
2023-01-19T02:17:19.673Z,100115.03
2023-01-19T02:22:35.792Z,100122.03
2023-01-19T02:27:41.060Z,100113.81
2023-01-19T02:32:45.401Z,100134.34
2023-01-19T02:37:49.372Z,100135.78
2023-01-19T02:43:00.852Z,100135.91
2023-01-19T02:48:05.950Z,100144.00
2023-01-19T02:53:37.079Z,100147.62
2023-01-19T02:58:51.245Z,100154.16
2023-01-19T03:04:00.702Z,100174.06
2023-01-19T03:09:12.915Z,100171.84
2023-01-19T03:14:23.510Z,100179.06
2023-01-19T03:19:28.897Z,100185.47
2023-01-19T03:24:37.923Z,100194.84
2023-01-19T03:29:47.396Z,100191.66
2023-01-19T03:34:52.607Z,100209.34
2023-01-19T03:39:56.680Z,100205.38
2023-01-19T03:45:02.831Z,100207.59
2023-01-19T03:50:13.140Z,100206.37
2023-01-19T03:55:16.944Z,100215.22
2023-01-19T04:00:22.207Z,100220.44
2023-01-19T04:05:26.368Z,100234.78
2023-01-19T04:10:30.101Z,100239.53
2023-01-19T04:15:35.369Z,100233.16
2023-01-19T04:20:39.188Z,100241.44
2023-01-19T04:25:42.913Z,100247.19
2023-01-19T04:30:50.877Z,100242.34
2023-01-19T04:35:54.733Z,100224.50
2023-01-19T04:40:58.356Z,100215.53
2023-01-19T04:46:03.509Z,100184.69
2023-01-19T04:51:07.309Z,100176.28
2023-01-19T04:56:11.032Z,100186.69
2023-01-19T05:01:16.063Z,100177.94
2023-01-19T05:06:19.855Z,100207.38
2023-01-19T05:11:23.555Z,100230.59
2023-01-19T05:16:28.711Z,100222.63
2023-01-19T05:21:32.592Z,100225.41
2023-01-19T05:26:36.349Z,100226.75
2023-01-19T05:31:41.420Z,100236.34
2023-01-19T05:36:45.226Z,100224.75
2023-01-19T05:41:48.981Z,100241.03
2023-01-19T05:46:54.054Z,100233.41
2023-01-19T05:51:57.778Z,100244.25
2023-01-19T05:57:02.394Z,100241.91
2023-01-19T06:02:07.681Z,100258.41
2023-01-19T06:07:11.475Z,100258.84
2023-01-19T06:12:15.176Z,100260.16
2023-01-19T06:17:20.382Z,100270.34
2023-01-19T06:22:24.534Z,100263.50
2023-01-19T06:27:28.303Z,100255.53
2023-01-19T06:32:33.738Z,100266.16
2023-01-19T06:37:37.761Z,100270.25
2023-01-19T06:42:41.660Z,100276.31
2023-01-19T06:47:48.415Z,100279.31
2023-01-19T06:52:52.509Z,100291.03
2023-01-19T06:58:00.006Z,100291.94
2023-01-19T07:03:07.435Z,100298.00
2023-01-19T07:08:11.204Z,100300.88
2023-01-19T07:13:14.948Z,100312.47
2023-01-19T07:18:20.104Z,100318.69
2023-01-19T07:23:24.066Z,100316.16
2023-01-19T07:28:27.823Z,100321.31
2023-01-19T07:33:33.068Z,100339.63
2023-01-19T07:38:36.925Z,100344.44
2023-01-19T07:43:40.677Z,100358.75
2023-01-19T07:48:47.389Z,100356.94
2023-01-19T07:53:51.829Z,100367.13
2023-01-19T07:58:55.582Z,100382.41
2023-01-19T08:04:00.686Z,100388.66
2023-01-19T08:09:06.945Z,100393.88
2023-01-19T08:14:11.177Z,100400.63
2023-01-19T08:19:16.301Z,100400.22
2023-01-19T08:24:22.855Z,100414.28
2023-01-19T08:29:26.761Z,100416.47
2023-01-19T08:34:31.984Z,100429.72
2023-01-19T08:39:35.767Z,100437.78
2023-01-19T08:44:49.752Z,100437.16
2023-01-19T08:50:02.064Z,100452.25
2023-01-19T08:55:07.136Z,100458.38
2023-01-19T09:00:12.184Z,100453.72
2023-01-19T09:05:17.335Z,100466.59
2023-01-19T09:10:21.206Z,100465.91
2023-01-19T09:15:24.963Z,100475.78
2023-01-19T09:20:31.033Z,100473.84
2023-01-19T09:25:34.983Z,100479.56
2023-01-19T09:30:40.184Z,100481.81
2023-01-19T09:35:46.896Z,100492.66
2023-01-19T09:40:53.020Z,100487.16
2023-01-19T09:46:00.305Z,100494.03
2023-01-19T09:51:08.626Z,100496.72
2023-01-19T09:56:14.834Z,100505.28
2023-01-19T10:01:34.733Z,100512.09
2023-01-19T10:06:40.437Z,100519.13
2023-01-19T10:11:52.993Z,100518.87
2023-01-19T10:17:05.479Z,100517.88
2023-01-19T10:22:21.480Z,100526.66
2023-01-19T10:27:29.256Z,100526.91
2023-01-19T10:32:36.236Z,100533.38
2023-01-19T10:37:42.024Z,100537.12
2023-01-19T10:42:45.862Z,100529.91
2023-01-19T10:47:50.632Z,100528.16
2023-01-19T10:52:58.119Z,100523.41
2023-01-19T10:58:02.479Z,100522.19
2023-01-19T11:03:06.882Z,100517.16
2023-01-19T11:08:23.864Z,100506.84
2023-01-19T11:13:27.590Z,100509.91
2023-01-19T11:18:34.007Z,100513.66
2023-01-19T11:23:43.207Z,100515.88
2023-01-19T11:28:51.351Z,100513.81
2023-01-19T11:33:56.026Z,100512.78
2023-01-19T11:39:04.111Z,100503.06
2023-01-19T11:44:13.066Z,100510.38
2023-01-19T11:49:23.229Z,100501.69
2023-01-19T11:54:33.788Z,100499.47
2023-01-19T11:59:37.614Z,100495.19
2023-01-19T12:04:44.348Z,100502.69
2023-01-19T12:09:53.700Z,100494.25
2023-01-19T12:15:03.438Z,100491.50
2023-01-19T12:20:18.567Z,100491.59
2023-01-19T12:25:30.952Z,100491.16
2023-01-19T12:30:34.947Z,100486.31
2023-01-19T12:35:59.673Z,100482.00
2023-01-19T12:41:29.263Z,100493.72
2023-01-19T12:46:33.265Z,100496.91
2023-01-19T12:51:37.180Z,100481.94
2023-01-19T12:56:42.384Z,100480.13
2023-01-19T13:02:24.690Z,100474.50
2023-01-19T13:07:28.537Z,100475.03
2023-01-19T13:12:33.652Z,100467.28
2023-01-19T13:17:48.002Z,100469.78
2023-01-19T13:23:19.636Z,100462.94
2023-01-19T13:28:32.989Z,100454.06
2023-01-19T13:33:47.563Z,100455.50
2023-01-19T13:38:53.269Z,100461.13
2023-01-19T13:44:02.810Z,100462.06
2023-01-19T13:49:17.722Z,100463.75
2023-01-19T13:54:21.559Z,100461.25
2023-01-19T13:59:26.640Z,100461.97
2023-01-19T14:04:32.395Z,100462.34
2023-01-19T14:09:36.193Z,100478.28
2023-01-19T14:14:41.563Z,100476.75
2023-01-19T14:19:52.397Z,100480.38
2023-01-19T14:24:56.131Z,100496.00
2023-01-19T14:30:21.385Z,100498.94
2023-01-19T14:35:26.008Z,100504.69
2023-01-19T14:40:31.231Z,100520.06
2023-01-19T14:45:39.327Z,100515.37
2023-01-19T14:50:57.678Z,100513.84
2023-01-19T14:56:07.523Z,100525.00
2023-01-19T15:01:12.927Z,100532.75
2023-01-19T15:06:18.981Z,100530.59
2023-01-19T15:11:25.489Z,100541.94
2023-01-19T15:16:34.070Z,100548.25
2023-01-19T15:21:41.956Z,100552.31
2023-01-19T15:26:45.971Z,100554.88
2023-01-19T15:32:14.967Z,100557.22
2023-01-19T15:37:18.838Z,100557.22
2023-01-19T15:42:22.513Z,100567.50
2023-01-19T15:47:27.627Z,100568.72
2023-01-19T15:52:31.329Z,100576.75
2023-01-19T15:57:35.491Z,100582.97
2023-01-19T16:02:40.586Z,100586.37
2023-01-19T16:07:44.479Z,100580.53
2023-01-19T16:12:48.831Z,100589.91
2023-01-19T16:17:54.083Z,100590.31
2023-01-19T16:23:06.241Z,100599.00
2023-01-19T16:28:17.789Z,100605.91
2023-01-19T16:33:23.052Z,100606.47
2023-01-19T16:38:27.019Z,100618.78
2023-01-19T16:43:30.737Z,100626.44
2023-01-19T16:48:36.015Z,100624.34
2023-01-19T16:53:39.713Z,100639.44
2023-01-19T16:58:43.941Z,100648.22
2023-01-19T17:03:49.407Z,100647.97
2023-01-19T17:08:53.937Z,100645.53
2023-01-19T17:14:00.083Z,100646.06
2023-01-19T17:19:08.017Z,100652.28
2023-01-19T17:24:11.876Z,100659.66
2023-01-19T17:29:16.105Z,100668.41
2023-01-19T17:34:21.198Z,100664.28
2023-01-19T17:39:24.965Z,100668.16
2023-01-19T17:44:28.762Z,100664.37
2023-01-19T17:49:33.914Z,100663.19
2023-01-19T17:54:37.671Z,100660.25
2023-01-19T17:59:43.792Z,100666.78
2023-01-19T18:04:48.889Z,100672.94
2023-01-19T18:09:55.191Z,100675.56
2023-01-19T18:14:58.992Z,100679.00
2023-01-19T18:20:04.621Z,100673.16
2023-01-19T18:25:08.893Z,100673.16
2023-01-19T18:30:13.552Z,100675.84
2023-01-19T18:35:19.083Z,100689.59
2023-01-19T18:40:22.889Z,100691.16
2023-01-19T18:45:26.646Z,100699.34
2023-01-19T18:50:32.076Z,100702.28
2023-01-19T18:55:36.675Z,100697.97
2023-01-19T19:00:40.702Z,100705.59
2023-01-19T19:05:46.222Z,100701.00
2023-01-19T19:10:50.136Z,100707.47
2023-01-19T19:15:54.189Z,100706.88
2023-01-19T19:20:59.598Z,100710.34
2023-01-19T19:26:04.627Z,100717.72
2023-01-19T19:31:10.393Z,100721.56
2023-01-19T19:36:16.784Z,100719.00
2023-01-19T19:41:22.423Z,100722.84
2023-01-19T19:46:27.296Z,100717.78
2023-01-19T19:51:32.693Z,100722.25
2023-01-19T19:56:36.420Z,100732.97
2023-01-19T20:01:40.282Z,100736.13
2023-01-19T20:06:46.228Z,100747.19
2023-01-19T20:11:50.106Z,100750.25
2023-01-19T20:16:54.408Z,100750.75
2023-01-19T20:21:59.607Z,100756.59
2023-01-19T20:27:03.407Z,100776.19
2023-01-19T20:32:07.966Z,100795.41
2023-01-19T20:37:13.274Z,100801.78
2023-01-19T20:42:17.190Z,100821.09
2023-01-19T20:47:22.049Z,100817.66
2023-01-19T20:52:27.252Z,100822.63
2023-01-19T20:57:31.661Z,100823.34
2023-01-19T21:02:35.407Z,100831.28
2023-01-19T21:07:40.617Z,100832.63
2023-01-19T21:12:44.866Z,100831.50
2023-01-19T21:17:48.575Z,100846.78
2023-01-19T21:22:53.847Z,100861.41
2023-01-19T21:27:57.569Z,100861.53
2023-01-19T21:33:02.261Z,100871.72
2023-01-19T21:38:07.613Z,100885.59
2023-01-19T21:43:12.190Z,100883.19
2023-01-19T21:48:16.101Z,100890.59
2023-01-19T21:53:21.185Z,100895.41
2023-01-19T21:58:24.910Z,100903.53
2023-01-19T22:03:28.974Z,100902.13
2023-01-19T22:08:34.203Z,100906.25
2023-01-19T22:13:39.479Z,100910.31
2023-01-19T22:18:45.051Z,100919.09
2023-01-19T22:23:51.821Z,100921.25
2023-01-19T22:28:56.284Z,100925.22
2023-01-19T22:34:00.144Z,100924.06
2023-01-19T22:39:07.328Z,100929.53
2023-01-19T22:44:13.753Z,100921.37
2023-01-19T22:49:19.431Z,100919.25
2023-01-19T22:54:24.523Z,100927.63
2023-01-19T22:59:28.381Z,100937.31
2023-01-19T23:04:32.121Z,100934.63
2023-01-19T23:09:38.808Z,100929.81
2023-01-19T23:14:42.651Z,100929.41
2023-01-19T23:19:46.421Z,100934.25
2023-01-19T23:24:51.526Z,100931.03
2023-01-19T23:29:55.291Z,100942.09
2023-01-19T23:34:59.010Z,100943.81
2023-01-19T23:40:04.260Z,100952.19
2023-01-19T23:45:09.692Z,100953.28
2023-01-19T23:50:13.683Z,100949.88
2023-01-19T23:55:18.900Z,100962.63
